WetterOnline ( http://www.wetteronline.de )

Wetter aktuell Cottbus

Aktuelles Wetter: Cottbus (70m)

6-stündlich | Neueste Meldungen
Ortszeit Temperatur Wetter
Sa, 26.05. 20:00 25.6° C bedeckt
Sa, 26.05. 14:00 26.6° C wolkenlos
Sa, 26.05. 8:00 16.4° C wolkenlos
Sa, 26.05. 2:00 13.1° C fast wolkenlos
Fr, 25.05. 20:00 -° C Sprühregen
Fr, 25.05. 14:00 26.0° C wolkig
Fr, 25.05. 8:00 17.1° C wolkenlos
Fr, 25.05. 2:00 15.5° C wolkenlos
Ortszeit Temperatur Wetter
Sa, 26.05. 23:00 20.4° C bedeckt
Sa, 26.05. 22:50 20.4° C bedeckt
Sa, 26.05. 22:40 20.6° C bewölkt
Sa, 26.05. 22:30 21.0° C bewölkt
Sa, 26.05. 22:20 21.0° C bewölkt
Sa, 26.05. 22:10 21.3° C bedeckt
Sa, 26.05. 22:00 21.6° C bedeckt
Sa, 26.05. 21:30 22.2° C wolkig
Sa, 26.05. 21:00 23.5° C leicht bewölkt
Sa, 26.05. 20:30 25.0° C bewölkt
Sa, 26.05. 20:00 25.6° C bedeckt
Ortszeit Relative Feuchte Sichtweite
Sa, 26.05. 20:00 33% 60 km
Sa, 26.05. 14:00 34% 30 km
Sa, 26.05. 8:00 69% 17 km
Sa, 26.05. 2:00 90% 26 km
Fr, 25.05. 20:00 - 35 km
Fr, 25.05. 14:00 30% 23 km
Fr, 25.05. 8:00 62% 4.1 km
Fr, 25.05. 2:00 64% 45 km
Ortszeit Relative Feuchte Sichtweite
Sa, 26.05. 23:00 59% 45 km
Sa, 26.05. 22:50 59% -
Sa, 26.05. 22:40 57% -
Sa, 26.05. 22:30 55% 55 km
Sa, 26.05. 22:20 55% -
Sa, 26.05. 22:10 54% -
Sa, 26.05. 22:00 53% 50 km
Sa, 26.05. 21:30 50% 65 km
Sa, 26.05. 21:00 46% 50 km
Sa, 26.05. 20:30 41% 50 km
Sa, 26.05. 20:00 33% 60 km
Ortszeit Niederschlagsmenge Niederschlagsart
Sa, 26.05. 20:00 0.0 l/m2 in 12 Std. -
Sa, 26.05. 14:00 0.0 l/m2 in 6 Std. -
Sa, 26.05. 8:00 7 l/m2 in 12 Std. -
Sa, 26.05. 2:00 7 l/m2 in 6 Std. Regen
Fr, 25.05. 20:00 3 l/m2 in 12 Std. Regenschauer
Fr, 25.05. 14:00 0.0 l/m2 in 6 Std. -
Fr, 25.05. 8:00 0.0 l/m2 in 12 Std. -
Fr, 25.05. 2:00 0.0 l/m2 in 6 Std. -
Ortszeit Niederschlagsmenge Niederschlagsart
Sa, 26.05. 23:00 0.0 l/m2 in 1 Std. -
Sa, 26.05. 22:50 keine Meldung -
Sa, 26.05. 22:40 keine Meldung -
Sa, 26.05. 22:30 0.0 l/m2 in 1 Std. -
Sa, 26.05. 22:20 keine Meldung -
Sa, 26.05. 22:10 keine Meldung -
Sa, 26.05. 22:00 0.0 l/m2 in 1 Std. -
Sa, 26.05. 21:30 0.0 l/m2 in 1 Std. -
Sa, 26.05. 21:00 0.0 l/m2 in 1 Std. -
Sa, 26.05. 20:30 0.0 l/m2 in 1 Std. -
Sa, 26.05. 20:00 0.0 l/m2 in 1 Std. -
Ortszeit Stärke Spitze Richtung
km/h Bft. km/h Grad Sektor
Sa, 26.05. 20:00 6 1 20 340° N
Sa, 26.05. 14:00 7 2 18 80° O
Sa, 26.05. 8:00 7 2 14 80° O
Sa, 26.05. 2:00 7 2 36 50° NO
Fr, 25.05. 20:00 15 3 46 120° SO
Fr, 25.05. 14:00 13 3 35 110° O
Fr, 25.05. 8:00 13 3 26 80° O
Fr, 25.05. 2:00 7 2 32 80° O
Ortszeit Stärke Spitze Richtung
km/h Bft. km/h Grad Sektor
Sa, 26.05. 23:00 7 2 18 50° NO
Sa, 26.05. 22:50 7 2 - 50° NO
Sa, 26.05. 22:40 7 2 - 50° NO
Sa, 26.05. 22:30 9 2 17 40° NO
Sa, 26.05. 22:20 9 2 - 40° NO
Sa, 26.05. 22:10 7 2 - 40° NO
Sa, 26.05. 22:00 9 2 26 30° NO
Sa, 26.05. 21:30 11 2 25 30° NO
Sa, 26.05. 21:00 11 2 24 30° NO
Sa, 26.05. 20:30 13 3 24 10° N
Sa, 26.05. 20:00 6 1 13 340° N
Ortszeit Untergrenze Bedeckung Gattung
total tief tief mittel hoch
Sa, 26.05. 20:00 3000 m 8/8 8/8 - - -
Sa, 26.05. 14:00 - 0/8 0/8 - - -
Sa, 26.05. 8:00 - 0/8 0/8 - - -
Sa, 26.05. 2:00 3900 m 1/8 1/8 - - -
Fr, 25.05. 20:00 2400 m 8/8 7/8 - - -
Fr, 25.05. 14:00 2100 m 7/8 1/8 - - -
Fr, 25.05. 8:00 - 0/8 0/8 - - -
Fr, 25.05. 2:00 10500 m 0/8 0/8 - - -
Ortszeit Bedeckungsgrad in Achtel und Wolkenuntergrenze
Sa, 26.05. 23:00 8(3000m)
Sa, 26.05. 22:50 8(3000m)
Sa, 26.05. 22:40 7(3000m)
Sa, 26.05. 22:30 7(3000m)
Sa, 26.05. 22:20 7(3000m)
Sa, 26.05. 22:10 8(3000m)
Sa, 26.05. 22:00 8(3000m)
Sa, 26.05. 21:30 4(2700m) 5(3600m)
Sa, 26.05. 21:00 3(3000m) 4(3600m)
Sa, 26.05. 20:30 7(3000m)
Sa, 26.05. 20:00 8(3000m)
Ortszeit Luftdruck NN (hPa) Tendenz (hPa in 3 Std.)
Sa, 26.05. 20:00 1020 - 0,2
Sa, 26.05. 14:00 1021 - 0,7
Sa, 26.05. 8:00 1022 + 0,9
Sa, 26.05. 2:00 1021 + 0,6
Fr, 25.05. 20:00 1019 + 0,7
Fr, 25.05. 14:00 1019 - 1,1
Fr, 25.05. 8:00 1021 + 0,1
Fr, 25.05. 2:00 1021 + 0,1
Ortszeit Luftdruck NN (hPa) Tendenz (hPa in 3 Std.)
Sa, 26.05. 23:00 1021 + 0,8
Sa, 26.05. 22:50 1021 keine Meldung
Sa, 26.05. 22:40 1021 keine Meldung
Sa, 26.05. 22:30 1021 + 1,0
Sa, 26.05. 22:20 1021 keine Meldung
Sa, 26.05. 22:10 1021 keine Meldung
Sa, 26.05. 22:00 1021 + 1,1
Sa, 26.05. 21:30 1021 + 1,2
Sa, 26.05. 21:00 1020 + 0,5
Sa, 26.05. 20:30 1020 0,0
Sa, 26.05. 20:00 1020 - 0,2
Ortszeit Schneehöhe (cm)
Sa, 26.05. 20:00 -
Sa, 26.05. 14:00 -
Sa, 26.05. 8:00 -
Sa, 26.05. 2:00 -
Fr, 25.05. 20:00 -
Fr, 25.05. 14:00 -
Fr, 25.05. 8:00 -
Fr, 25.05. 2:00 -
Ortszeit Schneehöhe (cm)
Sa, 26.05. 23:00 -
Sa, 26.05. 22:50 -
Sa, 26.05. 22:40 -
Sa, 26.05. 22:30 -
Sa, 26.05. 22:20 -
Sa, 26.05. 22:10 -
Sa, 26.05. 22:00 -
Sa, 26.05. 21:30 -
Sa, 26.05. 21:00 -
Sa, 26.05. 20:30 -
Sa, 26.05. 20:00 -
Link zu dieser Seite / Seite empfehlen

Das Wetter in ...